Time;durP1;ratioP1;P1;durP2;ratioP2;P2;SDS_P1;SDS_P2;PMS_P1;PMS_P2;Temp;Humidity;BMP_temperature;BMP_pressure;BME280_temperature;BME280_humidity;BME280_pressure;Samples;Min_cycle;Max_cycle;Signal;HPM_P1;HPM_P2
2022/08/03 00:01:37;;;;;;;8.55;3.08;;;;;;;21.33;87.01;101410.00;5091224;28;20113;-56
2022/08/03 00:04:04;;;;;;;8.32;3.10;;;;;;;21.28;87.64;101404.06;5091137;28;20032;-56
2022/08/03 00:06:29;;;;;;;7.35;3.00;;;;;;;21.32;86.80;101408.28;5091203;28;20028;-57
2022/08/03 00:08:55;;;;;;;5.97;2.72;;;;;;;21.19;86.99;101397.34;5073067;28;20036;-56
2022/08/03 00:11:20;;;;;;;8.63;3.08;;;;;;;21.08;87.86;101391.69;5091327;28;20108;-57
2022/08/03 00:13:46;;;;;;;11.63;3.30;;;;;;;21.09;87.91;101396.09;5091186;28;20032;-56
2022/08/03 00:16:12;;;;;;;6.78;3.40;;;;;;;21.05;88.23;101392.69;5091153;28;20051;-57
2022/08/03 00:18:37;;;;;;;8.32;3.10;;;;;;;21.00;88.82;101389.38;5091045;28;20110;-57
2022/08/03 00:21:03;;;;;;;10.95;3.42;;;;;;;21.00;88.82;101397.38;5090881;28;20192;-57
2022/08/03 00:23:28;;;;;;;8.27;3.22;;;;;;;21.04;88.58;101395.44;5091118;28;20028;-57
2022/08/03 00:25:54;;;;;;;6.68;2.80;;;;;;;21.07;88.62;101390.81;5091161;28;20042;-57
2022/08/03 00:28:19;;;;;;;9.82;3.03;;;;;;;20.97;89.07;101389.53;5091200;28;20664;-57
2022/08/03 00:30:45;;;;;;;11.02;3.53;;;;;;;21.02;89.09;101390.19;5090958;28;20040;-57
2022/08/03 00:33:10;;;;;;;11.82;3.83;;;;;;;20.98;88.85;101393.06;5090298;28;20067;-57
2022/08/03 00:35:35;;;;;;;7.90;3.28;;;;;;;20.91;89.50;101392.50;5092620;28;20040;-57
2022/08/03 00:38:01;;;;;;;7.07;3.15;;;;;;;20.94;89.14;101388.84;5094532;28;20036;-57
2022/08/03 00:40:27;;;;;;;7.40;3.22;;;;;;;20.91;89.44;101392.50;5094561;28;20040;-57
2022/08/03 00:42:53;;;;;;;8.50;3.88;;;;;;;20.88;89.51;101391.78;5094337;28;20139;-57
2022/08/03 00:45:27;;;;;;;8.25;3.53;;;;;;;20.89;88.82;101389.03;5093784;28;20445;-58
2022/08/03 00:47:54;;;;;;;4.60;2.85;;;;;;;20.89;89.11;101385.53;5094037;28;20439;-57
2022/08/03 00:50:21;;;;;;;7.57;3.30;;;;;;;20.82;88.80;101385.81;5094304;28;20147;-57
2022/08/03 00:52:47;;;;;;;5.50;3.10;;;;;;;20.84;89.24;101385.72;5094306;28;20040;-57
2022/08/03 00:55:14;;;;;;;6.88;3.35;;;;;;;20.76;89.27;101377.28;5094324;28;20046;-57
2022/08/03 00:57:40;;;;;;;10.13;3.65;;;;;;;20.68;89.39;101366.13;5094267;28;20067;-57
2022/08/03 01:00:07;;;;;;;6.07;2.95;;;;;;;20.72;89.18;101376.53;5094109;28;20560;-57
2022/08/03 01:02:33;;;;;;;7.25;3.35;;;;;;;20.71;89.10;101373.94;5093889;28;20055;-57
2022/08/03 01:04:58;;;;;;;10.70;3.35;;;;;;;20.67;89.82;101375.03;5094082;28;20120;-57
2022/08/03 01:07:42;;;;;;;8.30;3.10;;;;;;;20.67;89.08;101377.69;5075954;28;20441;-56
2022/08/03 01:10:38;;;;;;;7.97;2.95;;;;;;;20.65;89.12;101377.75;5094141;28;20032;-57
2022/08/03 01:13:21;;;;;;;10.27;3.50;;;;;;;20.64;89.17;101372.50;5093756;28;20088;-56
2022/08/03 01:15:53;;;;;;;6.88;2.83;;;;;;;20.63;89.36;101373.44;5093813;28;20111;-56
2022/08/03 01:18:38;;;;;;;7.78;3.22;;;;;;;20.61;88.95;101373.50;5093906;28;20036;-56
2022/08/03 01:21:10;;;;;;;9.60;3.60;;;;;;;20.56;89.85;101367.56;5093553;28;20035;-56
2022/08/03 01:23:58;;;;;;;7.25;3.08;;;;;;;20.55;89.48;101367.63;5093899;28;20046;-57
2022/08/03 01:26:48;;;;;;;9.10;3.40;;;;;;;20.53;90.19;101364.16;5093731;28;20109;-56
2022/08/03 01:30:08;;;;;;;11.15;3.67;;;;;;;20.55;89.42;101365.84;5093548;28;20035;-56
2022/08/03 01:32:54;;;;;;;8.13;3.22;;;;;;;20.49;90.40;101366.09;5010848;28;20108;-56
2022/08/03 01:35:32;;;;;;;7.53;3.70;;;;;;;20.45;90.76;101365.38;5087493;28;20047;-57
2022/08/03 01:38:03;;;;;;;11.05;3.30;;;;;;;20.46;90.85;101359.13;5093324;28;20028;-56
2022/08/03 01:40:31;;;;;;;8.90;4.30;;;;;;;20.46;91.31;101361.78;5093335;28;20027;-57
2022/08/03 01:43:00;;;;;;;9.75;3.70;;;;;;;20.42;91.30;101364.69;5093080;28;20375;-56
2022/08/03 01:45:27;;;;;;;11.73;3.65;;;;;;;20.40;91.40;101359.44;5093276;28;20092;-56
2022/08/03 01:47:53;;;;;;;9.35;3.42;;;;;;;20.40;91.20;101355.91;5091998;28;20165;-57
2022/08/03 01:50:22;;;;;;;9.98;3.55;;;;;;;20.42;91.54;101360.22;5093127;28;20068;-56
2022/08/03 01:52:49;;;;;;;7.07;3.33;;;;;;;20.39;90.76;101355.03;5092972;28;20039;-56
2022/08/03 01:55:17;;;;;;;8.27;3.70;;;;;;;20.34;91.48;101350.81;5093200;28;20065;-56
2022/08/03 01:57:44;;;;;;;8.52;3.63;;;;;;;20.34;91.94;101356.16;5093005;28;20093;-56
2022/08/03 02:00:10;;;;;;;10.80;3.75;;;;;;;20.26;91.99;101350.34;5092982;28;20350;-56
2022/08/03 02:02:37;;;;;;;9.40;3.42;;;;;;;20.28;91.85;101353.75;5092892;28;20040;-57
2022/08/03 02:05:06;;;;;;;9.90;3.72;;;;;;;20.31;91.47;101353.63;5092747;28;20086;-56
2022/08/03 02:07:33;;;;;;;9.43;3.50;;;;;;;20.28;91.76;101351.97;5075157;28;20054;-56
2022/08/03 02:10:01;;;;;;;11.05;3.75;;;;;;;20.29;91.17;101355.47;5092756;28;20040;-56
2022/08/03 02:12:30;;;;;;;8.25;3.88;;;;;;;20.26;91.60;101351.16;5092884;28;20114;-56
2022/08/03 02:14:56;;;;;;;7.88;3.42;;;;;;;20.23;91.67;101353.13;5092643;28;20042;-57
2022/08/03 02:17:24;;;;;;;10.43;3.63;;;;;;;20.17;91.60;101348.94;5092637;28;20050;-57
2022/08/03 02:19:50;;;;;;;6.60;3.40;;;;;;;20.15;91.52;101346.34;5092263;28;20051;-56
2022/08/03 02:22:16;;;;;;;5.20;3.33;;;;;;;20.13;91.79;101348.22;5092453;28;20036;-57
2022/08/03 02:24:41;;;;;;;8.90;3.58;;;;;;;20.11;91.82;101349.19;5092401;28;20039;-56
2022/08/03 02:27:17;;;;;;;6.90;3.33;;;;;;;20.06;92.18;101346.78;5092507;28;20032;-57
2022/08/03 02:29:47;;;;;;;5.50;3.15;;;;;;;19.98;92.58;101356.00;5092341;28;20035;-57
2022/08/03 02:32:15;;;;;;;8.38;3.50;;;;;;;19.94;93.23;101354.41;5092188;28;20115;-57
2022/08/03 02:34:45;;;;;;;5.65;3.20;;;;;;;19.97;93.12;101346.31;5091693;28;20081;-57
2022/08/03 02:37:13;;;;;;;10.43;3.65;;;;;;;19.95;93.11;101342.84;5092244;28;20055;-57
2022/08/03 02:39:41;;;;;;;8.23;3.30;;;;;;;19.92;91.92;101353.59;5092457;28;20433;-57
2022/08/03 02:42:11;;;;;;;9.90;3.60;;;;;;;19.84;93.48;101347.78;5092229;28;20032;-57
2022/08/03 02:44:38;;;;;;;9.90;3.58;;;;;;;19.80;93.07;101349.69;5092186;28;20684;-57
2022/08/03 02:47:08;;;;;;;9.05;4.03;;;;;;;19.89;93.39;101353.78;5091856;28;20036;-58
2022/08/03 02:49:35;;;;;;;10.63;3.90;;;;;;;19.89;93.93;101344.00;5092013;28;20312;-57
2022/08/03 02:52:01;;;;;;;9.90;3.95;;;;;;;19.89;93.56;101345.78;5092017;28;20035;-57
2022/08/03 02:54:28;;;;;;;9.52;3.63;;;;;;;19.89;93.38;101349.31;5091877;28;20042;-57
2022/08/03 02:56:55;;;;;;;9.82;4.00;;;;;;;19.86;93.85;101343.28;5091889;28;20046;-57
2022/08/03 02:59:22;;;;;;;6.18;3.90;;;;;;;19.89;93.75;101333.38;5091179;28;20431;-58
2022/08/03 03:01:48;;;;;;;8.55;4.00;;;;;;;19.88;93.82;101333.44;5091730;28;20342;-58
2022/08/03 03:04:15;;;;;;;10.13;4.03;;;;;;;19.81;94.44;101331.03;5091907;28;20036;-57
2022/08/03 03:06:40;;;;;;;8.60;3.95;;;;;;;19.86;94.31;101337.97;5091960;28;20036;-58
2022/08/03 03:09:07;;;;;;;8.02;4.18;;;;;;;19.85;94.48;101337.09;5091686;28;20077;-57
2022/08/03 03:11:36;;;;;;;9.18;4.20;;;;;;;19.84;94.16;101332.72;5091198;28;20462;-57
2022/08/03 03:14:02;;;;;;;10.32;3.80;;;;;;;19.90;93.99;101334.25;5091647;28;20075;-57
2022/08/03 03:16:29;;;;;;;9.63;4.20;;;;;;;19.78;93.79;101331.19;5091719;28;20070;-55
2022/08/03 03:18:55;;;;;;;12.07;4.35;;;;;;;19.80;94.00;101337.28;5091637;28;20032;-57
2022/08/03 03:21:22;;;;;;;10.10;4.22;;;;;;;19.78;93.97;101338.28;5091787;28;20413;-57
2022/08/03 03:23:48;;;;;;;11.18;4.88;;;;;;;19.78;94.16;101339.16;5091682;28;20028;-58
2022/08/03 03:26:15;;;;;;;10.18;4.50;;;;;;;19.77;93.86;101337.41;5091334;28;20366;-57
2022/08/03 03:28:40;;;;;;;10.48;4.30;;;;;;;19.79;93.59;101332.91;5091435;28;20075;-57
2022/08/03 03:31:07;;;;;;;9.88;4.50;;;;;;;19.74;94.08;101336.72;5091609;28;20071;-57
2022/08/03 03:33:33;;;;;;;8.20;3.78;;;;;;;19.77;93.50;101337.41;5091445;28;20088;-57
2022/08/03 03:35:59;;;;;;;7.65;3.90;;;;;;;19.68;94.03;101332.53;5091549;28;20782;-58
2022/08/03 03:38:25;;;;;;;10.05;4.40;;;;;;;19.71;93.71;101331.53;5091435;28;20064;-58
2022/08/03 03:40:50;;;;;;;8.88;4.43;;;;;;;19.68;93.73;101334.31;5091440;28;20120;-58
2022/08/03 03:43:17;;;;;;;9.60;4.07;;;;;;;19.65;93.51;101323.81;5091442;28;20063;-57
2022/08/03 03:45:43;;;;;;;9.70;3.85;;;;;;;19.58;93.62;101333.81;5091467;28;20040;-57
2022/08/03 03:48:09;;;;;;;9.60;3.85;;;;;;;19.62;93.16;101335.44;5091385;28;20024;-59
2022/08/03 03:50:36;;;;;;;8.80;3.95;;;;;;;19.46;94.09;101324.56;5091485;28;20059;-58
2022/08/03 03:53:02;;;;;;;10.32;3.80;;;;;;;19.55;93.88;101331.34;5091098;28;20051;-58
2022/08/03 03:55:28;;;;;;;8.75;4.25;;;;;;;19.54;94.06;101329.59;5091377;28;20031;-58
2022/08/03 03:57:53;;;;;;;10.25;3.90;;;;;;;19.48;94.30;101333.34;5091267;28;20124;-57
2022/08/03 04:00:19;;;;;;;7.82;3.97;;;;;;;19.52;94.10;101333.25;5091466;28;20455;-57
2022/08/03 04:02:45;;;;;;;9.45;4.25;;;;;;;19.54;93.12;101332.25;5090994;28;20047;-57
2022/08/03 04:10:59;;;;;;;7.63;3.80;;;;;;;19.46;93.56;101327.22;5093507;28;20083;-57
2022/08/03 04:13:32;;;;;;;11.50;4.20;;;;;;;19.42;94.54;101333.59;5095188;28;20129;-57
2022/08/03 04:15:58;;;;;;;11.68;4.10;;;;;;;19.38;94.10;101332.00;5095092;28;20393;-57
2022/08/03 04:18:26;;;;;;;8.38;3.90;;;;;;;19.40;93.84;101324.81;5094930;28;20059;-57
2022/08/03 04:20:53;;;;;;;7.88;3.80;;;;;;;19.42;93.98;101332.72;5094590;28;20451;-57
2022/08/03 04:23:23;;;;;;;10.15;4.32;;;;;;;19.34;94.73;101334.84;5095030;28;20028;-57
2022/08/03 04:25:50;;;;;;;9.55;3.75;;;;;;;19.41;93.77;101333.66;5094861;28;20431;-57
2022/08/03 04:28:18;;;;;;;9.95;4.13;;;;;;;19.34;94.21;101330.41;5094890;28;20042;-56
2022/08/03 04:30:47;;;;;;;8.90;3.78;;;;;;;19.35;94.25;101340.09;5094555;28;20032;-56
2022/08/03 04:33:13;;;;;;;10.68;3.92;;;;;;;19.41;94.22;101338.97;5094411;28;20032;-57
2022/08/03 04:35:40;;;;;;;10.82;3.78;;;;;;;19.39;94.35;101333.72;5094806;28;20055;-57
2022/08/03 04:38:06;;;;;;;9.55;4.25;;;;;;;19.39;94.06;101335.53;5094635;28;20032;-56
2022/08/03 04:40:35;;;;;;;9.52;4.10;;;;;;;19.38;94.43;101337.31;5094687;28;20035;-56
2022/08/03 04:43:01;;;;;;;9.85;4.25;;;;;;;19.40;94.22;101338.09;5094367;28;20032;-58
2022/08/03 04:45:29;;;;;;;8.35;3.60;;;;;;;19.38;94.39;101344.41;5094477;28;20429;-56
2022/08/03 04:47:54;;;;;;;9.73;4.00;;;;;;;19.41;94.15;101344.25;5094346;28;20028;-57
2022/08/03 04:50:21;;;;;;;8.88;3.67;;;;;;;19.37;94.49;101340.91;5076312;28;20036;-57
2022/08/03 04:52:47;;;;;;;9.50;4.10;;;;;;;19.38;94.54;101355.03;5094299;28;20128;-57
2022/08/03 04:55:28;;;;;;;6.53;3.50;;;;;;;19.41;93.91;101346.91;5094454;28;20452;-57
2022/08/03 04:57:53;;;;;;;7.22;3.40;;;;;;;19.41;93.96;101346.91;5093760;28;20042;-57
2022/08/03 05:00:19;;;;;;;5.55;3.40;;;;;;;19.45;94.16;101357.34;5094081;28;20032;-56
2022/08/03 05:02:44;;;;;;;8.85;3.70;;;;;;;19.49;93.41;101350.13;5093861;28;20048;-57
2022/08/03 05:05:10;;;;;;;11.38;3.78;;;;;;;19.42;93.95;101361.91;5094112;28;20036;-57
2022/08/03 05:07:36;;;;;;;6.72;3.42;;;;;;;19.38;94.31;101361.22;5094115;28;20043;-57
2022/08/03 05:10:06;;;;;;;9.05;3.22;;;;;;;19.43;94.19;101358.34;5093954;28;20371;-57
2022/08/03 05:12:31;;;;;;;10.25;3.50;;;;;;;19.48;93.69;101369.63;5093874;28;20104;-57
2022/08/03 05:14:56;;;;;;;9.85;3.75;;;;;;;19.52;93.32;101360.66;5093658;28;20377;-57
2022/08/03 05:17:21;;;;;;;12.40;3.55;;;;;;;19.54;92.94;101368.56;5093598;28;20123;-56
2022/08/03 05:19:47;;;;;;;9.10;3.38;;;;;;;19.62;92.55;101361.13;5093738;28;20110;-57
2022/08/03 05:22:12;;;;;;;9.48;3.42;;;;;;;19.65;92.55;101375.13;5093546;28;20055;-56
2022/08/03 05:24:37;;;;;;;6.97;3.40;;;;;;;19.66;92.73;101368.91;5093783;28;20462;-57
2022/08/03 05:27:03;;;;;;;11.20;3.42;;;;;;;19.71;92.13;101368.72;5093370;28;20445;-57
2022/08/03 05:29:28;;;;;;;8.05;3.33;;;;;;;19.72;92.00;101376.63;5093583;28;20028;-57
2022/08/03 05:31:53;;;;;;;9.50;3.17;;;;;;;19.75;92.11;101371.16;5093621;28;20036;-57
2022/08/03 05:34:18;;;;;;;11.77;3.40;;;;;;;19.77;92.00;101374.59;5093148;28;20094;-57
2022/08/03 05:36:44;;;;;;;7.55;3.00;;;;;;;19.80;91.71;101382.44;5093527;28;20351;-57
2022/08/03 05:39:09;;;;;;;8.40;3.88;;;;;;;19.84;91.86;101382.31;5093335;28;20093;-57
2022/08/03 05:41:34;;;;;;;10.55;3.05;;;;;;;19.94;90.79;101375.66;5075186;28;20435;-57
2022/08/03 05:44:00;;;;;;;9.60;2.90;;;;;;;19.95;91.05;101377.38;5093252;28;20031;-56
2022/08/03 05:46:25;;;;;;;7.53;2.90;;;;;;;20.00;90.33;101378.06;5095763;28;20632;-53
2022/08/03 05:48:51;;;;;;;8.57;3.20;;;;;;;20.02;90.05;101389.47;5102165;28;20093;-55
2022/08/03 05:51:16;;;;;;;15.07;3.03;;;;;;;20.07;89.24;101379.53;5102703;28;20326;-55
2022/08/03 05:53:42;;;;;;;7.28;2.63;;;;;;;20.10;89.64;101384.69;5103549;28;20045;-55
2022/08/03 05:56:08;;;;;;;8.80;2.80;;;;;;;20.19;89.25;101384.28;5101499;28;20114;-56
2022/08/03 05:58:33;;;;;;;9.85;2.75;;;;;;;20.41;87.38;101385.09;5107362;28;20038;-55
2022/08/03 06:00:58;;;;;;;10.63;3.20;;;;;;;20.56;86.19;101387.97;5113464;28;20060;-55
2022/08/03 06:03:24;;;;;;;8.48;2.70;;;;;;;20.57;86.37;101387.03;5113327;28;20031;-55
2022/08/03 06:05:49;;;;;;;7.22;3.03;;;;;;;20.61;85.82;101381.47;5112854;28;20032;-55
2022/08/03 06:08:14;;;;;;;10.45;2.95;;;;;;;20.59;85.73;101387.84;5113518;28;20085;-54
2022/08/03 06:10:39;;;;;;;9.27;2.80;;;;;;;20.55;85.83;101371.16;5113119;28;20066;-55
2022/08/03 06:13:05;;;;;;;8.33;2.40;;;;;;;20.59;85.65;101379.84;5112587;28;20038;-55
2022/08/03 06:15:32;;;;;;;8.73;2.50;;;;;;;20.60;86.31;101378.94;5112885;28;20292;-58
2022/08/03 06:17:58;;;;;;;6.50;2.10;;;;;;;20.63;85.80;101376.09;5113055;28;20269;-58
2022/08/03 06:20:23;;;;;;;8.43;2.75;;;;;;;20.65;84.97;101376.88;5113193;28;20084;-58
2022/08/03 06:22:48;;;;;;;8.13;2.70;;;;;;;20.67;85.64;101383.88;5113377;28;20404;-58
2022/08/03 06:25:15;;;;;;;8.52;2.50;;;;;;;20.72;84.94;101381.00;5113030;28;20042;-58
2022/08/03 06:27:41;;;;;;;5.60;2.25;;;;;;;20.73;85.74;101378.28;5112907;28;20067;-58
2022/08/03 06:30:09;;;;;;;9.43;2.40;;;;;;;20.79;85.39;101388.59;5112786;28;20092;-58
2022/08/03 06:32:34;;;;;;;8.95;2.70;;;;;;;20.85;84.64;101390.13;5112193;28;20100;-56
2022/08/03 06:35:00;;;;;;;8.40;2.60;;;;;;;20.87;84.52;101382.94;5112655;28;20473;-56
2022/08/03 06:37:26;;;;;;;8.80;2.40;;;;;;;20.91;84.50;101383.66;5112723;28;20042;-57
2022/08/03 06:39:52;;;;;;;11.57;3.13;;;;;;;20.95;83.70;101386.09;5112278;28;20462;-57
2022/08/03 06:42:17;;;;;;;8.60;2.38;;;;;;;21.03;83.53;101394.56;5112634;28;20031;-57
2022/08/03 06:44:42;;;;;;;6.85;2.45;;;;;;;20.89;84.20;101378.41;5112545;28;20037;-57
2022/08/03 06:47:07;;;;;;;10.60;2.92;;;;;;;21.11;83.60;101397.75;5112550;28;20039;-56
2022/08/03 06:49:33;;;;;;;7.20;2.50;;;;;;;21.03;83.21;101378.59;5112565;28;20495;-57
2022/08/03 06:51:58;;;;;;;8.23;2.63;;;;;;;21.13;82.87;101389.66;5112525;28;20031;-57
2022/08/03 06:54:23;;;;;;;10.50;2.53;;;;;;;21.20;82.75;101401.78;5112634;28;20289;-57
2022/08/03 06:56:49;;;;;;;7.18;2.35;;;;;;;21.30;81.89;101396.88;5112511;28;20038;-57
2022/08/03 06:59:14;;;;;;;7.60;2.20;;;;;;;21.30;81.78;101396.88;5094451;28;20035;-56
2022/08/03 07:01:40;;;;;;;9.82;2.35;;;;;;;21.36;81.86;101396.56;5112256;28;20035;-57
2022/08/03 07:04:05;;;;;;;10.93;2.30;;;;;;;21.47;80.86;101397.72;5112384;28;20051;-57
2022/08/03 07:06:30;;;;;;;7.77;2.30;;;;;;;21.55;80.37;101400.03;5112397;28;20358;-57
2022/08/03 07:08:56;;;;;;;8.27;2.50;;;;;;;21.57;80.30;101397.28;5112363;28;20337;-57
2022/08/03 07:11:21;;;;;;;11.38;2.30;;;;;;;21.64;80.38;101402.25;5111767;28;20454;-57
2022/08/03 07:13:46;;;;;;;7.75;2.40;;;;;;;21.79;79.81;101401.47;5110579;28;20067;-57
2022/08/03 07:16:12;;;;;;;8.65;2.40;;;;;;;21.99;77.80;101404.91;5110779;28;20343;-57
2022/08/03 07:18:40;;;;;;;7.03;2.13;;;;;;;21.89;78.58;101402.69;5110891;28;20046;-57
2022/08/03 07:21:07;;;;;;;7.18;2.00;;;;;;;21.88;78.58;101403.63;5110738;28;20284;-58
2022/08/03 07:23:32;;;;;;;6.13;1.75;;;;;;;21.87;78.51;101409.91;5110600;28;20047;-58
2022/08/03 07:25:57;;;;;;;11.40;2.97;;;;;;;21.90;78.33;101408.91;5110835;28;20032;-58
2022/08/03 07:28:22;;;;;;;11.00;2.60;;;;;;;21.96;77.94;101418.38;5110571;28;20035;-58
2022/08/03 07:30:48;;;;;;;7.68;2.25;;;;;;;21.97;78.43;101415.66;5110536;28;20031;-58
2022/08/03 07:33:14;;;;;;;6.25;2.55;;;;;;;21.99;78.30;101419.06;5110372;28;20031;-59
2022/08/03 07:35:39;;;;;;;8.40;2.28;;;;;;;22.09;77.18;101424.84;5110757;28;20114;-58
2022/08/03 07:38:04;;;;;;;11.10;2.70;;;;;;;22.15;76.53;101421.84;5092833;28;20059;-58
2022/08/03 07:40:29;;;;;;;10.32;2.70;;;;;;;22.14;76.44;101425.47;5112052;28;20072;-59
2022/08/03 07:42:55;;;;;;;8.50;2.60;;;;;;;22.15;76.19;101419.19;5112013;28;20466;-59
2022/08/03 07:45:22;;;;;;;9.75;2.50;;;;;;;22.16;75.60;101418.25;5115229;28;20034;-58
2022/08/03 07:47:47;;;;;;;15.02;2.60;;;;;;;22.25;74.87;101408.88;5116040;28;20032;-58
2022/08/03 07:50:12;;;;;;;13.60;2.40;;;;;;;22.34;74.66;101403.09;5116309;28;20043;-58
2022/08/03 07:52:46;;;;;;;15.98;2.50;;;;;;;22.32;74.33;101400.50;5116237;28;20084;-58
2022/08/03 07:55:12;;;;;;;11.43;2.30;;;;;;;22.47;72.65;101406.81;5115869;28;20090;-58
2022/08/03 07:57:37;;;;;;;9.80;2.50;;;;;;;22.42;73.71;101400.84;5115694;28;20795;-58
2022/08/03 08:00:05;;;;;;;8.50;2.75;;;;;;;22.56;73.23;101406.28;5115887;28;20644;-58
2022/08/03 08:02:30;;;;;;;12.15;2.67;;;;;;;22.54;72.90;101402.84;5115864;28;20061;-58
2022/08/03 08:04:56;;;;;;;8.52;2.53;;;;;;;22.58;73.29;101407.94;5115746;28;20031;-58
2022/08/03 08:07:21;;;;;;;14.67;2.63;;;;;;;22.63;72.78;101396.16;5115811;28;20048;-58
2022/08/03 08:09:46;;;;;;;12.32;2.45;;;;;;;22.69;72.28;101393.13;5115109;28;20287;-58
2022/08/03 08:12:12;;;;;;;9.55;2.58;;;;;;;22.74;71.46;101409.75;5115456;28;20035;-58
2022/08/03 08:14:38;;;;;;;11.00;2.58;;;;;;;22.82;71.20;101412.91;5115412;28;20122;-58
2022/08/03 08:17:04;;;;;;;9.40;2.60;;;;;;;22.84;70.62;101403.03;5115337;28;20035;-52
2022/08/03 08:19:29;;;;;;;15.55;2.72;;;;;;;22.86;71.72;101407.31;5115574;28;20049;-58
2022/08/03 08:21:54;;;;;;;13.98;3.45;;;;;;;22.85;71.27;101400.28;5115523;28;20496;-58
2022/08/03 08:24:20;;;;;;;15.73;3.33;;;;;;;22.92;71.38;101401.63;5115421;28;20031;-58
2022/08/03 08:26:45;;;;;;;15.63;2.55;;;;;;;23.00;70.66;101398.56;5115335;28;20073;-58
2022/08/03 08:29:11;;;;;;;10.85;3.17;;;;;;;23.09;69.94;101403.34;5115436;28;20086;-58
2022/08/03 08:31:36;;;;;;;8.77;2.28;;;;;;;23.12;70.08;101400.50;5115417;28;20721;-58
2022/08/03 08:34:04;;;;;;;8.02;2.33;;;;;;;23.19;70.03;101409.06;5115057;28;20067;-58
2022/08/03 08:36:33;;;;;;;15.65;2.50;;;;;;;23.25;69.22;101392.66;5115274;28;20110;-58
2022/08/03 08:38:59;;;;;;;8.73;2.00;;;;;;;23.28;69.28;101389.81;5114965;28;20350;-58
2022/08/03 08:41:24;;;;;;;9.07;2.28;;;;;;;23.40;68.55;101402.44;5114778;28;20035;-58
2022/08/03 08:43:50;;;;;;;12.77;2.40;;;;;;;23.45;67.92;101395.03;5114911;28;20043;-60
2022/08/03 08:46:16;;;;;;;9.82;1.70;;;;;;;23.55;68.70;101400.75;5114929;28;20077;-58
2022/08/03 08:48:43;;;;;;;13.02;2.40;;;;;;;23.64;67.78;101389.50;5115101;28;20066;-58
2022/08/03 08:51:11;;;;;;;13.43;2.70;;;;;;;23.62;67.53;101401.25;5114837;28;20119;-58
2022/08/03 08:53:39;;;;;;;12.52;2.60;;;;;;;23.67;68.13;101386.66;5115038;28;20049;-59
2022/08/03 08:56:06;;;;;;;8.20;2.20;;;;;;;23.73;67.64;101393.44;5114113;28;20043;-59
2022/08/03 08:58:36;;;;;;;13.40;2.58;;;;;;;23.79;67.17;101380.56;5114815;28;20039;-58
2022/08/03 09:01:02;;;;;;;12.55;2.55;;;;;;;23.93;65.84;101387.75;5114711;28;20046;-58
2022/08/03 09:03:28;;;;;;;9.43;2.42;;;;;;;24.06;65.38;101390.56;5114216;28;20515;-59
2022/08/03 09:05:53;;;;;;;15.38;2.30;;;;;;;24.35;63.82;101391.47;5114305;28;20032;-55
2022/08/03 09:08:19;;;;;;;11.80;2.78;;;;;;;24.89;61.43;101387.97;5114313;28;20035;-58
2022/08/03 09:10:44;;;;;;;12.55;2.40;;;;;;;25.96;56.92;101397.81;5114497;28;20044;-58
2022/08/03 09:13:09;;;;;;;7.77;2.10;;;;;;;27.13;53.76;101391.28;5114374;28;20122;-58
2022/08/03 09:15:36;;;;;;;14.20;2.37;;;;;;;28.05;50.48;101387.84;5114426;28;20265;-58
2022/08/03 09:18:03;;;;;;;11.70;2.00;;;;;;;29.14;47.47;101393.47;5114617;28;20269;-59
2022/08/03 09:20:31;;;;;;;10.90;1.98;;;;;;;30.08;46.02;101391.75;5114487;28;20028;-58
2022/08/03 09:23:02;;;;;;;13.65;2.30;;;;;;;29.97;44.95;101385.50;5114323;28;20458;-58
2022/08/03 09:25:35;;;;;;;14.85;2.47;;;;;;;29.41;45.60;101388.53;5113962;28;20104;-57
2022/08/03 09:28:07;;;;;;;11.52;2.00;;;;;;;29.05;47.72;101390.56;5114143;28;20053;-58
2022/08/03 09:30:33;;;;;;;15.57;2.80;;;;;;;28.61;47.79;101382.50;5114245;28;20035;-58
2022/08/03 09:33:00;;;;;;;15.82;2.00;;;;;;;27.94;49.60;101387.81;5114044;28;20035;-58
2022/08/03 09:35:27;;;;;;;12.00;2.13;;;;;;;27.55;50.98;101389.00;5113937;28;20047;-57
2022/08/03 09:38:12;;;;;;;8.10;2.17;;;;;;;27.21;53.19;101390.69;5095861;28;20039;-59
2022/08/03 09:40:39;;;;;;;12.27;2.17;;;;;;;26.92;52.89;101387.44;5113739;28;20668;-58
2022/08/03 09:43:07;;;;;;;11.27;1.92;;;;;;;26.87;53.00;101386.91;5113877;28;20039;-59
2022/08/03 09:45:33;;;;;;;14.65;2.42;;;;;;;26.82;53.06;101391.78;5113909;28;20039;-59
2022/08/03 09:48:21;;;;;;;10.98;2.03;;;;;;;26.90;54.34;101397.44;5113788;28;20027;-59
2022/08/03 09:51:02;;;;;;;10.63;2.25;;;;;;;26.97;53.05;101401.44;5113588;28;20035;-59
2022/08/03 09:53:28;;;;;;;10.15;2.53;;;;;;;26.92;52.34;101387.44;5113708;28;20036;-60
2022/08/03 09:55:55;;;;;;;8.13;2.08;;;;;;;27.04;53.09;101386.56;5113521;28;20404;-57
2022/08/03 09:58:21;;;;;;;8.85;2.22;;;;;;;27.26;52.60;101389.38;5113520;28;20385;-59
2022/08/03 10:01:02;;;;;;;8.07;2.20;;;;;;;27.26;52.61;101391.19;5113329;28;20031;-60
2022/08/03 10:03:33;;;;;;;14.15;2.50;;;;;;;27.39;51.56;101387.47;5113151;28;20042;-59
2022/08/03 10:06:18;;;;;;;17.05;2.47;;;;;;;27.45;51.82;101386.16;5113346;28;20046;-61
2022/08/03 10:08:43;;;;;;;13.43;2.78;;;;;;;27.51;50.67;101382.16;5112313;28;20039;-59
2022/08/03 10:11:09;;;;;;;17.05;3.10;;;;;;;27.62;50.58;101390.28;5113264;28;20180;-59
2022/08/03 10:13:35;;;;;;;12.80;2.70;;;;;;;27.67;49.86;101397.03;5113237;28;20027;-59
2022/08/03 10:16:03;;;;;;;11.13;2.45;;;;;;;27.84;50.51;101376.91;5113234;28;20105;-59
2022/08/03 10:18:28;;;;;;;12.50;2.00;;;;;;;27.93;49.19;101381.56;5113233;28;20035;-59
2022/08/03 10:21:02;;;;;;;16.30;2.83;;;;;;;28.05;49.00;101382.47;5113044;28;20115;-60
2022/08/03 10:23:28;;;;;;;15.38;3.20;;;;;;;28.19;48.63;101378.69;5113220;28;20031;-61
2022/08/03 10:26:00;;;;;;;15.07;2.70;;;;;;;28.50;49.17;101369.06;5112566;28;20053;-61
2022/08/03 10:28:41;;;;;;;15.85;3.05;;;;;;;28.44;48.08;101374.91;5109386;27;20414;-60
2022/08/03 10:31:08;;;;;;;16.83;2.55;;;;;;;28.50;47.50;101374.44;5089278;28;20097;-60
2022/08/03 10:33:42;;;;;;;13.43;2.97;;;;;;;28.50;47.89;101369.91;5089092;28;20039;-60
2022/08/03 10:36:08;;;;;;;16.38;2.85;;;;;;;28.61;46.44;101372.59;5089048;28;20032;-60
2022/08/03 10:38:42;;;;;;;11.55;2.80;;;;;;;28.81;47.34;101367.44;5089063;28;20082;-60
2022/08/03 10:41:08;;;;;;;15.30;3.20;;;;;;;28.81;45.41;101360.22;5088663;28;20154;-61
2022/08/03 10:43:51;;;;;;;13.02;2.47;;;;;;;28.77;46.23;101362.28;5085822;28;20040;-60
2022/08/03 10:46:20;;;;;;;15.20;2.53;;;;;;;28.86;45.43;101358.03;5077438;28;20036;-59
2022/08/03 10:48:47;;;;;;;11.40;2.40;;;;;;;29.16;46.01;101362.72;5075837;28;20109;-61
2022/08/03 10:51:12;;;;;;;11.88;2.65;;;;;;;29.11;44.36;101354.13;5077672;28;20024;-59
2022/08/03 10:53:42;;;;;;;10.20;2.50;;;;;;;29.31;44.64;101341.69;5082822;28;20131;-60
2022/08/03 10:59:19;;;;;;;12.82;2.28;;;;;;;29.57;43.46;101347.63;5087219;28;20071;-60
2022/08/03 11:01:55;;;;;;;14.77;2.20;;;;;;;29.65;43.61;101348.66;5087223;28;20036;-60
2022/08/03 11:04:23;;;;;;;15.38;2.22;;;;;;;29.72;43.69;101341.75;5087204;28;20036;-61
2022/08/03 11:07:14;;;;;;;9.00;2.05;;;;;;;29.71;44.94;101336.50;5087183;28;20676;-60
2022/08/03 11:09:46;;;;;;;12.48;2.20;;;;;;;29.91;43.70;101326.69;5086937;28;20043;-60
2022/08/03 11:12:31;;;;;;;12.68;2.25;;;;;;;30.04;43.23;101312.00;5087007;28;20071;-60
2022/08/03 11:14:59;;;;;;;12.70;2.53;;;;;;;30.17;41.62;101319.00;5087020;28;20051;-61
2022/08/03 11:17:25;;;;;;;13.68;2.08;;;;;;;30.29;41.64;101321.50;5086907;28;20728;-62
2022/08/03 11:19:51;;;;;;;12.15;2.10;;;;;;;30.46;41.61;101328.09;5086790;28;20051;-61
2022/08/03 11:22:18;;;;;;;10.00;1.52;;;;;;;30.57;41.14;101325.31;5086822;28;20051;-60
2022/08/03 11:24:50;;;;;;;12.77;2.20;;;;;;;30.71;40.99;101313.25;5087010;28;20042;-60
2022/08/03 11:27:32;;;;;;;10.35;2.05;;;;;;;30.77;41.57;101323.50;5086356;28;20056;-59
2022/08/03 11:30:27;;;;;;;12.07;1.88;;;;;;;30.88;42.20;101319.81;5074912;28;20043;-58
2022/08/03 11:32:56;;;;;;;6.45;1.70;;;;;;;31.03;39.73;101323.81;5074368;28;20028;-60
2022/08/03 11:35:26;;;;;;;11.48;2.47;;;;;;;31.16;39.62;101327.16;5077023;28;20205;-59